Terminal Aerodrome Forecast
Issued by NWS Northern Indiana

Home | Current Version | Previous Version | Graphics & Text | Print | Product List | Glossary On
Versions: 1 2 3 4 5 6 7 8 9 10 11 12 13 14 15 16 17 18 19 20 21 22 23 24
083
FTUS43 KIWX 262236 AAA
TAFFWA
TAF AMD
KFWA 262236Z 2623/2718 16007KT P6SM SCT050 BKN150
     FM270000 14008KT 6SM -SHRA BR VCTS OVC060CB
      TEMPO 2700/2702 3SM -TSRA BR OVC030CB
     FM270400 14008KT 6SM -SHRA OVC015
     FM270900 35005KT 4SM BR VCSH BKN008
     FM271500 04006KT P6SM BKN020=

USA.gov is the U.S. government's official web portal to all federal, state and local government web resources and services.